sensor_id;sensor_type;location;lat;lon;timestamp;P1;durP1;ratioP1;P2;durP2;ratioP2
67041;SDS011;53949;47.790;18.750;2022-11-15T00:01:28;25.50;;;13.88;;
67041;SDS011;53949;47.790;18.750;2022-11-15T00:04:50;27.55;;;14.32;;
67041;SDS011;53949;47.790;18.750;2022-11-15T00:08:11;21.40;;;11.95;;
67041;SDS011;53949;47.790;18.750;2022-11-15T00:11:34;24.10;;;12.23;;
67041;SDS011;53949;47.790;18.750;2022-11-15T00:14:55;25.62;;;11.98;;
67041;SDS011;53949;47.790;18.750;2022-11-15T00:18:16;20.10;;;12.63;;
67041;SDS011;53949;47.790;18.750;2022-11-15T00:21:39;25.37;;;13.38;;
67041;SDS011;53949;47.790;18.750;2022-11-15T00:25:00;21.90;;;12.93;;
67041;SDS011;53949;47.790;18.750;2022-11-15T00:28:23;23.08;;;12.63;;
67041;SDS011;53949;47.790;18.750;2022-11-15T00:31:45;23.73;;;12.23;;
67041;SDS011;53949;47.790;18.750;2022-11-15T00:35:07;21.55;;;12.98;;
67041;SDS011;53949;47.790;18.750;2022-11-15T00:38:32;18.95;;;11.32;;
67041;SDS011;53949;47.790;18.750;2022-11-15T00:41:55;22.15;;;12.18;;
67041;SDS011;53949;47.790;18.750;2022-11-15T00:45:16;25.08;;;13.65;;
67041;SDS011;53949;47.790;18.750;2022-11-15T00:48:38;22.48;;;12.88;;
67041;SDS011;53949;47.790;18.750;2022-11-15T00:52:00;22.85;;;13.43;;
67041;SDS011;53949;47.790;18.750;2022-11-15T00:55:21;29.00;;;14.70;;
67041;SDS011;53949;47.790;18.750;2022-11-15T00:58:43;26.95;;;15.07;;
67041;SDS011;53949;47.790;18.750;2022-11-15T01:02:06;21.45;;;12.70;;
67041;SDS011;53949;47.790;18.750;2022-11-15T01:05:27;24.42;;;13.82;;
67041;SDS011;53949;47.790;18.750;2022-11-15T01:08:49;26.80;;;15.40;;
67041;SDS011;53949;47.790;18.750;2022-11-15T01:12:10;26.73;;;14.87;;
67041;SDS011;53949;47.790;18.750;2022-11-15T01:15:32;26.98;;;15.18;;
67041;SDS011;53949;47.790;18.750;2022-11-15T01:18:55;28.27;;;16.83;;
67041;SDS011;53949;47.790;18.750;2022-11-15T01:22:17;29.92;;;16.70;;
67041;SDS011;53949;47.790;18.750;2022-11-15T01:25:39;20.88;;;11.85;;
67041;SDS011;53949;47.790;18.750;2022-11-15T01:29:01;18.65;;;11.98;;
67041;SDS011;53949;47.790;18.750;2022-11-15T01:32:22;20.12;;;11.60;;
67041;SDS011;53949;47.790;18.750;2022-11-15T01:35:44;18.33;;;10.80;;
67041;SDS011;53949;47.790;18.750;2022-11-15T01:39:05;22.05;;;13.35;;
67041;SDS011;53949;47.790;18.750;2022-11-15T01:42:26;21.20;;;12.57;;
67041;SDS011;53949;47.790;18.750;2022-11-15T01:45:52;22.52;;;12.35;;
67041;SDS011;53949;47.790;18.750;2022-11-15T01:49:19;20.60;;;13.18;;
67041;SDS011;53949;47.790;18.750;2022-11-15T01:52:42;24.58;;;13.57;;
67041;SDS011;53949;47.790;18.750;2022-11-15T01:56:05;24.63;;;12.35;;
67041;SDS011;53949;47.790;18.750;2022-11-15T01:59:28;24.23;;;12.82;;
67041;SDS011;53949;47.790;18.750;2022-11-15T02:02:49;22.33;;;11.80;;
67041;SDS011;53949;47.790;18.750;2022-11-15T02:06:11;21.55;;;12.07;;
67041;SDS011;53949;47.790;18.750;2022-11-15T02:09:33;22.13;;;12.20;;
67041;SDS011;53949;47.790;18.750;2022-11-15T02:12:54;21.52;;;12.40;;
67041;SDS011;53949;47.790;18.750;2022-11-15T02:16:28;18.98;;;11.82;;
67041;SDS011;53949;47.790;18.750;2022-11-15T02:31:10;21.10;;;12.35;;
67041;SDS011;53949;47.790;18.750;2022-11-15T02:38:34;21.52;;;12.35;;
67041;SDS011;53949;47.790;18.750;2022-11-15T02:42:04;25.27;;;12.82;;
67041;SDS011;53949;47.790;18.750;2022-11-15T02:45:50;23.12;;;14.23;;
67041;SDS011;53949;47.790;18.750;2022-11-15T02:49:14;21.23;;;10.88;;
67041;SDS011;53949;47.790;18.750;2022-11-15T02:52:36;22.30;;;12.15;;
67041;SDS011;53949;47.790;18.750;2022-11-15T02:55:58;24.50;;;12.82;;
67041;SDS011;53949;47.790;18.750;2022-11-15T03:03:41;21.00;;;12.68;;
67041;SDS011;53949;47.790;18.750;2022-11-15T03:11:07;24.42;;;13.82;;
67041;SDS011;53949;47.790;18.750;2022-11-15T03:14:34;18.92;;;11.43;;
67041;SDS011;53949;47.790;18.750;2022-11-15T03:18:02;19.20;;;9.82;;
67041;SDS011;53949;47.790;18.750;2022-11-15T03:21:26;20.23;;;11.98;;
67041;SDS011;53949;47.790;18.750;2022-11-15T03:24:53;21.50;;;12.15;;
67041;SDS011;53949;47.790;18.750;2022-11-15T03:28:17;21.12;;;12.50;;
67041;SDS011;53949;47.790;18.750;2022-11-15T03:31:47;21.70;;;12.77;;
67041;SDS011;53949;47.790;18.750;2022-11-15T03:35:17;20.33;;;11.95;;
67041;SDS011;53949;47.790;18.750;2022-11-15T03:38:41;21.08;;;11.88;;
67041;SDS011;53949;47.790;18.750;2022-11-15T03:45:43;18.20;;;11.63;;
67041;SDS011;53949;47.790;18.750;2022-11-15T03:49:09;21.12;;;12.27;;
67041;SDS011;53949;47.790;18.750;2022-11-15T03:52:41;22.35;;;12.18;;
67041;SDS011;53949;47.790;18.750;2022-11-15T03:56:03;22.35;;;12.65;;
67041;SDS011;53949;47.790;18.750;2022-11-15T03:59:25;20.55;;;11.63;;
67041;SDS011;53949;47.790;18.750;2022-11-15T04:02:46;22.00;;;12.43;;
67041;SDS011;53949;47.790;18.750;2022-11-15T04:06:08;19.08;;;12.35;;
67041;SDS011;53949;47.790;18.750;2022-11-15T04:09:29;23.00;;;12.45;;
67041;SDS011;53949;47.790;18.750;2022-11-15T04:12:51;16.87;;;10.75;;
67041;SDS011;53949;47.790;18.750;2022-11-15T04:16:12;18.83;;;10.02;;
67041;SDS011;53949;47.790;18.750;2022-11-15T04:19:35;18.08;;;9.60;;
67041;SDS011;53949;47.790;18.750;2022-11-15T04:23:17;14.75;;;9.02;;
67041;SDS011;53949;47.790;18.750;2022-11-15T04:26:59;16.23;;;9.55;;
67041;SDS011;53949;47.790;18.750;2022-11-15T04:30:21;17.77;;;9.00;;
67041;SDS011;53949;47.790;18.750;2022-11-15T04:33:42;14.93;;;9.27;;
67041;SDS011;53949;47.790;18.750;2022-11-15T04:37:03;18.17;;;9.52;;
67041;SDS011;53949;47.790;18.750;2022-11-15T04:40:34;14.60;;;9.05;;
67041;SDS011;53949;47.790;18.750;2022-11-15T04:43:56;16.87;;;9.18;;
67041;SDS011;53949;47.790;18.750;2022-11-15T04:47:17;12.88;;;8.63;;
67041;SDS011;53949;47.790;18.750;2022-11-15T04:50:39;13.62;;;8.88;;
67041;SDS011;53949;47.790;18.750;2022-11-15T04:54:01;15.27;;;8.40;;
67041;SDS011;53949;47.790;18.750;2022-11-15T04:57:23;12.73;;;8.20;;
67041;SDS011;53949;47.790;18.750;2022-11-15T05:00:44;13.68;;;7.65;;
67041;SDS011;53949;47.790;18.750;2022-11-15T05:04:06;22.70;;;11.23;;
67041;SDS011;53949;47.790;18.750;2022-11-15T05:07:40;21.00;;;9.70;;
67041;SDS011;53949;47.790;18.750;2022-11-15T05:11:02;17.98;;;10.43;;
67041;SDS011;53949;47.790;18.750;2022-11-15T05:14:23;18.05;;;9.50;;
67041;SDS011;53949;47.790;18.750;2022-11-15T05:17:45;15.07;;;8.65;;
67041;SDS011;53949;47.790;18.750;2022-11-15T05:21:08;13.70;;;8.45;;
67041;SDS011;53949;47.790;18.750;2022-11-15T05:24:32;13.30;;;8.18;;
67041;SDS011;53949;47.790;18.750;2022-11-15T05:27:53;14.10;;;7.45;;
67041;SDS011;53949;47.790;18.750;2022-11-15T05:31:16;14.18;;;8.70;;
67041;SDS011;53949;47.790;18.750;2022-11-15T05:34:37;14.57;;;7.87;;
67041;SDS011;53949;47.790;18.750;2022-11-15T05:37:59;14.52;;;7.55;;
67041;SDS011;53949;47.790;18.750;2022-11-15T05:41:21;11.50;;;7.40;;
67041;SDS011;53949;47.790;18.750;2022-11-15T05:45:05;11.60;;;8.07;;
67041;SDS011;53949;47.790;18.750;2022-11-15T05:48:27;12.73;;;7.75;;
67041;SDS011;53949;47.790;18.750;2022-11-15T05:51:49;12.20;;;7.72;;
67041;SDS011;53949;47.790;18.750;2022-11-15T05:55:11;13.57;;;8.88;;
67041;SDS011;53949;47.790;18.750;2022-11-15T05:58:33;14.23;;;8.75;;
67041;SDS011;53949;47.790;18.750;2022-11-15T06:01:54;14.85;;;8.35;;
67041;SDS011;53949;47.790;18.750;2022-11-15T06:05:16;14.65;;;9.38;;
67041;SDS011;53949;47.790;18.750;2022-11-15T06:08:38;15.82;;;9.88;;
67041;SDS011;53949;47.790;18.750;2022-11-15T06:12:00;22.13;;;11.80;;
67041;SDS011;53949;47.790;18.750;2022-11-15T06:15:21;19.60;;;10.50;;
67041;SDS011;53949;47.790;18.750;2022-11-15T06:18:43;15.15;;;9.88;;
67041;SDS011;53949;47.790;18.750;2022-11-15T06:22:04;17.48;;;10.18;;
67041;SDS011;53949;47.790;18.750;2022-11-15T06:25:26;15.50;;;9.75;;
67041;SDS011;53949;47.790;18.750;2022-11-15T06:28:50;14.90;;;9.23;;
67041;SDS011;53949;47.790;18.750;2022-11-15T06:32:11;17.75;;;10.60;;
67041;SDS011;53949;47.790;18.750;2022-11-15T06:35:33;20.70;;;11.32;;
67041;SDS011;53949;47.790;18.750;2022-11-15T06:38:56;17.62;;;10.30;;
67041;SDS011;53949;47.790;18.750;2022-11-15T06:42:17;23.25;;;12.00;;
67041;SDS011;53949;47.790;18.750;2022-11-15T06:45:39;23.48;;;14.60;;
67041;SDS011;53949;47.790;18.750;2022-11-15T06:49:00;30.58;;;15.50;;
67041;SDS011;53949;47.790;18.750;2022-11-15T06:52:29;25.25;;;14.23;;
67041;SDS011;53949;47.790;18.750;2022-11-15T06:55:58;24.85;;;13.32;;
67041;SDS011;53949;47.790;18.750;2022-11-15T06:59:27;21.45;;;12.63;;
67041;SDS011;53949;47.790;18.750;2022-11-15T07:02:48;21.27;;;12.45;;
67041;SDS011;53949;47.790;18.750;2022-11-15T07:06:10;22.27;;;12.37;;
67041;SDS011;53949;47.790;18.750;2022-11-15T07:09:33;20.48;;;12.30;;
67041;SDS011;53949;47.790;18.750;2022-11-15T07:12:56;22.08;;;14.55;;
67041;SDS011;53949;47.790;18.750;2022-11-15T07:16:17;22.27;;;13.45;;
67041;SDS011;53949;47.790;18.750;2022-11-15T07:19:39;19.50;;;12.10;;
67041;SDS011;53949;47.790;18.750;2022-11-15T07:23:04;18.58;;;11.23;;
67041;SDS011;53949;47.790;18.750;2022-11-15T07:26:26;18.45;;;11.07;;
67041;SDS011;53949;47.790;18.750;2022-11-15T07:29:48;19.87;;;11.63;;
67041;SDS011;53949;47.790;18.750;2022-11-15T07:33:10;20.98;;;12.70;;
67041;SDS011;53949;47.790;18.750;2022-11-15T07:36:31;24.70;;;14.50;;
67041;SDS011;53949;47.790;18.750;2022-11-15T07:39:53;25.10;;;15.70;;
67041;SDS011;53949;47.790;18.750;2022-11-15T07:43:14;23.17;;;13.82;;
67041;SDS011;53949;47.790;18.750;2022-11-15T07:46:36;22.90;;;14.52;;
67041;SDS011;53949;47.790;18.750;2022-11-15T07:49:58;24.02;;;14.23;;
67041;SDS011;53949;47.790;18.750;2022-11-15T07:53:19;23.83;;;14.55;;
67041;SDS011;53949;47.790;18.750;2022-11-15T07:56:41;23.55;;;13.82;;
67041;SDS011;53949;47.790;18.750;2022-11-15T08:00:06;18.83;;;12.60;;
67041;SDS011;53949;47.790;18.750;2022-11-15T08:03:28;22.63;;;13.50;;
67041;SDS011;53949;47.790;18.750;2022-11-15T08:06:50;21.98;;;13.18;;
67041;SDS011;53949;47.790;18.750;2022-11-15T08:10:11;23.65;;;13.38;;
67041;SDS011;53949;47.790;18.750;2022-11-15T08:13:33;28.33;;;16.30;;
67041;SDS011;53949;47.790;18.750;2022-11-15T08:16:54;37.38;;;19.87;;
67041;SDS011;53949;47.790;18.750;2022-11-15T08:20:16;46.97;;;21.80;;
67041;SDS011;53949;47.790;18.750;2022-11-15T08:23:37;33.20;;;18.77;;
67041;SDS011;53949;47.790;18.750;2022-11-15T08:26:59;37.72;;;19.30;;
67041;SDS011;53949;47.790;18.750;2022-11-15T08:30:21;28.67;;;16.92;;
67041;SDS011;53949;47.790;18.750;2022-11-15T08:33:43;25.95;;;16.05;;
67041;SDS011;53949;47.790;18.750;2022-11-15T08:37:05;24.92;;;15.10;;
67041;SDS011;53949;47.790;18.750;2022-11-15T08:40:27;28.40;;;15.98;;
67041;SDS011;53949;47.790;18.750;2022-11-15T08:43:48;25.58;;;15.20;;
67041;SDS011;53949;47.790;18.750;2022-11-15T08:47:13;24.87;;;14.68;;
67041;SDS011;53949;47.790;18.750;2022-11-15T08:50:34;25.65;;;15.65;;
67041;SDS011;53949;47.790;18.750;2022-11-15T08:53:56;28.17;;;17.50;;
67041;SDS011;53949;47.790;18.750;2022-11-15T08:57:17;28.80;;;16.10;;
67041;SDS011;53949;47.790;18.750;2022-11-15T09:00:39;25.55;;;15.93;;
67041;SDS011;53949;47.790;18.750;2022-11-15T09:04:01;26.58;;;15.38;;
67041;SDS011;53949;47.790;18.750;2022-11-15T09:07:24;26.25;;;16.15;;
67041;SDS011;53949;47.790;18.750;2022-11-15T09:10:46;25.30;;;15.23;;
67041;SDS011;53949;47.790;18.750;2022-11-15T09:14:07;27.25;;;16.30;;
67041;SDS011;53949;47.790;18.750;2022-11-15T09:17:31;28.50;;;16.15;;
67041;SDS011;53949;47.790;18.750;2022-11-15T09:20:56;28.40;;;16.65;;
67041;SDS011;53949;47.790;18.750;2022-11-15T09:24:20;28.10;;;16.80;;
67041;SDS011;53949;47.790;18.750;2022-11-15T09:27:42;27.50;;;17.58;;
67041;SDS011;53949;47.790;18.750;2022-11-15T09:31:05;25.70;;;16.65;;
67041;SDS011;53949;47.790;18.750;2022-11-15T09:34:28;28.80;;;16.52;;
67041;SDS011;53949;47.790;18.750;2022-11-15T09:37:49;38.90;;;21.10;;
67041;SDS011;53949;47.790;18.750;2022-11-15T09:41:24;44.00;;;23.62;;
67041;SDS011;53949;47.790;18.750;2022-11-15T09:45:06;46.43;;;26.37;;
67041;SDS011;53949;47.790;18.750;2022-11-15T09:51:40;43.38;;;22.35;;
67041;SDS011;53949;47.790;18.750;2022-11-15T09:54:52;39.58;;;21.33;;
67041;SDS011;53949;47.790;18.750;2022-11-15T09:58:00;32.30;;;19.50;;
67041;SDS011;53949;47.790;18.750;2022-11-15T10:01:16;35.25;;;21.05;;
67041;SDS011;53949;47.790;18.750;2022-11-15T10:04:23;30.98;;;18.37;;
67041;SDS011;53949;47.790;18.750;2022-11-15T10:07:40;32.57;;;18.73;;
67041;SDS011;53949;47.790;18.750;2022-11-15T10:11:04;27.75;;;17.10;;
67041;SDS011;53949;47.790;18.750;2022-11-15T10:14:30;27.42;;;16.48;;
67041;SDS011;53949;47.790;18.750;2022-11-15T10:20:58;25.80;;;15.77;;
67041;SDS011;53949;47.790;18.750;2022-11-15T10:24:06;26.50;;;15.35;;
67041;SDS011;53949;47.790;18.750;2022-11-15T10:27:18;26.20;;;16.87;;
67041;SDS011;53949;47.790;18.750;2022-11-15T10:30:22;24.30;;;15.32;;
67041;SDS011;53949;47.790;18.750;2022-11-15T10:36:36;25.48;;;14.75;;
67041;SDS011;53949;47.790;18.750;2022-11-15T10:39:39;22.15;;;14.63;;
67041;SDS011;53949;47.790;18.750;2022-11-15T10:42:43;26.65;;;14.55;;
67041;SDS011;53949;47.790;18.750;2022-11-15T10:45:46;22.23;;;13.95;;
67041;SDS011;53949;47.790;18.750;2022-11-15T10:48:49;22.62;;;14.10;;
67041;SDS011;53949;47.790;18.750;2022-11-15T10:51:53;20.77;;;13.77;;
67041;SDS011;53949;47.790;18.750;2022-11-15T10:58:09;24.85;;;15.25;;
67041;SDS011;53949;47.790;18.750;2022-11-15T11:01:46;22.42;;;14.13;;
67041;SDS011;53949;47.790;18.750;2022-11-15T11:04:50;21.45;;;14.20;;
67041;SDS011;53949;47.790;18.750;2022-11-15T11:11:23;20.77;;;13.45;;
67041;SDS011;53949;47.790;18.750;2022-11-15T11:14:27;20.02;;;13.27;;
67041;SDS011;53949;47.790;18.750;2022-11-15T11:17:39;24.45;;;14.25;;
67041;SDS011;53949;47.790;18.750;2022-11-15T11:20:46;20.50;;;13.35;;
67041;SDS011;53949;47.790;18.750;2022-11-15T11:24:05;20.42;;;12.68;;
67041;SDS011;53949;47.790;18.750;2022-11-15T11:37:14;23.52;;;14.48;;
67041;SDS011;53949;47.790;18.750;2022-11-15T11:47:07;23.58;;;14.13;;
67041;SDS011;53949;47.790;18.750;2022-11-15T11:50:14;24.17;;;15.00;;
67041;SDS011;53949;47.790;18.750;2022-11-15T11:53:31;22.73;;;14.48;;
67041;SDS011;53949;47.790;18.750;2022-11-15T11:56:40;24.23;;;13.95;;
67041;SDS011;53949;47.790;18.750;2022-11-15T11:59:50;24.27;;;13.85;;
67041;SDS011;53949;47.790;18.750;2022-11-15T12:13:04;24.87;;;15.07;;
67041;SDS011;53949;47.790;18.750;2022-11-15T12:16:12;21.85;;;14.45;;
67041;SDS011;53949;47.790;18.750;2022-11-15T12:19:17;23.02;;;14.87;;
67041;SDS011;53949;47.790;18.750;2022-11-15T12:25:33;24.37;;;14.80;;
67041;SDS011;53949;47.790;18.750;2022-11-15T12:28:51;24.92;;;15.55;;
67041;SDS011;53949;47.790;18.750;2022-11-15T12:32:54;24.65;;;15.25;;
67041;SDS011;53949;47.790;18.750;2022-11-15T12:35:41;23.62;;;14.45;;
67041;SDS011;53949;47.790;18.750;2022-11-15T12:45:25;23.45;;;13.80;;
67041;SDS011;53949;47.790;18.750;2022-11-15T12:54:49;26.42;;;17.20;;
67041;SDS011;53949;47.790;18.750;2022-11-15T12:57:53;24.55;;;14.73;;
67041;SDS011;53949;47.790;18.750;2022-11-15T13:00:57;24.42;;;16.00;;
67041;SDS011;53949;47.790;18.750;2022-11-15T13:10:44;24.83;;;15.02;;
67041;SDS011;53949;47.790;18.750;2022-11-15T13:13:47;23.95;;;14.93;;
67041;SDS011;53949;47.790;18.750;2022-11-15T13:16:57;29.55;;;16.50;;
67041;SDS011;53949;47.790;18.750;2022-11-15T13:20:14;29.60;;;16.83;;
67041;SDS011;53949;47.790;18.750;2022-11-15T13:23:20;24.23;;;16.23;;
67041;SDS011;53949;47.790;18.750;2022-11-15T13:26:24;29.48;;;16.87;;
67041;SDS011;53949;47.790;18.750;2022-11-15T13:29:27;26.02;;;16.17;;
67041;SDS011;53949;47.790;18.750;2022-11-15T13:32:31;29.00;;;17.90;;
67041;SDS011;53949;47.790;18.750;2022-11-15T13:35:36;28.27;;;16.70;;
67041;SDS011;53949;47.790;18.750;2022-11-15T13:38:43;25.95;;;16.77;;
67041;SDS011;53949;47.790;18.750;2022-11-15T13:41:50;25.70;;;16.85;;
67041;SDS011;53949;47.790;18.750;2022-11-15T13:44:57;28.85;;;17.92;;
67041;SDS011;53949;47.790;18.750;2022-11-15T13:48:07;27.83;;;18.10;;
67041;SDS011;53949;47.790;18.750;2022-11-15T13:58:08;30.30;;;18.30;;
67041;SDS011;53949;47.790;18.750;2022-11-15T14:01:16;28.70;;;19.62;;
67041;SDS011;53949;47.790;18.750;2022-11-15T14:04:22;28.90;;;17.30;;
67041;SDS011;53949;47.790;18.750;2022-11-15T14:07:27;28.87;;;17.33;;
67041;SDS011;53949;47.790;18.750;2022-11-15T14:10:34;28.50;;;18.08;;
67041;SDS011;53949;47.790;18.750;2022-11-15T14:13:38;30.12;;;17.45;;
67041;SDS011;53949;47.790;18.750;2022-11-15T14:16:43;32.55;;;18.80;;
67041;SDS011;53949;47.790;18.750;2022-11-15T14:19:49;29.70;;;17.67;;
67041;SDS011;53949;47.790;18.750;2022-11-15T14:22:54;30.65;;;18.15;;
67041;SDS011;53949;47.790;18.750;2022-11-15T14:25:59;27.65;;;16.37;;
67041;SDS011;53949;47.790;18.750;2022-11-15T14:29:21;25.88;;;17.10;;
67041;SDS011;53949;47.790;18.750;2022-11-15T14:35:52;29.52;;;17.27;;
67041;SDS011;53949;47.790;18.750;2022-11-15T14:38:55;32.20;;;18.35;;
67041;SDS011;53949;47.790;18.750;2022-11-15T14:42:00;37.45;;;18.67;;
67041;SDS011;53949;47.790;18.750;2022-11-15T14:45:09;48.25;;;25.05;;
67041;SDS011;53949;47.790;18.750;2022-11-15T14:48:15;35.67;;;21.35;;
67041;SDS011;53949;47.790;18.750;2022-11-15T14:51:18;33.35;;;18.33;;
67041;SDS011;53949;47.790;18.750;2022-11-15T14:54:22;29.85;;;16.77;;
67041;SDS011;53949;47.790;18.750;2022-11-15T14:57:26;31.15;;;17.75;;
67041;SDS011;53949;47.790;18.750;2022-11-15T15:00:30;28.02;;;17.85;;
67041;SDS011;53949;47.790;18.750;2022-11-15T15:03:37;30.80;;;17.42;;
67041;SDS011;53949;47.790;18.750;2022-11-15T15:06:40;31.05;;;17.67;;
67041;SDS011;53949;47.790;18.750;2022-11-15T15:09:44;30.75;;;18.15;;
67041;SDS011;53949;47.790;18.750;2022-11-15T15:12:47;36.70;;;18.05;;
67041;SDS011;53949;47.790;18.750;2022-11-15T15:15:51;30.42;;;17.23;;
67041;SDS011;53949;47.790;18.750;2022-11-15T15:18:54;31.23;;;16.55;;
67041;SDS011;53949;47.790;18.750;2022-11-15T15:21:58;31.15;;;17.48;;
67041;SDS011;53949;47.790;18.750;2022-11-15T15:25:01;31.30;;;17.98;;
67041;SDS011;53949;47.790;18.750;2022-11-15T15:28:04;35.90;;;19.40;;
67041;SDS011;53949;47.790;18.750;2022-11-15T15:31:08;32.03;;;17.98;;
67041;SDS011;53949;47.790;18.750;2022-11-15T15:34:12;30.33;;;17.40;;
67041;SDS011;53949;47.790;18.750;2022-11-15T15:37:22;33.30;;;17.60;;
67041;SDS011;53949;47.790;18.750;2022-11-15T15:40:27;31.17;;;18.30;;
67041;SDS011;53949;47.790;18.750;2022-11-15T15:43:32;33.15;;;18.45;;
67041;SDS011;53949;47.790;18.750;2022-11-15T15:46:41;33.34;;;18.70;;
67041;SDS011;53949;47.790;18.750;2022-11-15T15:49:44;32.45;;;18.85;;
67041;SDS011;53949;47.790;18.750;2022-11-15T15:52:47;36.53;;;19.75;;
67041;SDS011;53949;47.790;18.750;2022-11-15T15:55:51;32.45;;;17.92;;
67041;SDS011;53949;47.790;18.750;2022-11-15T15:58:54;35.63;;;19.85;;
67041;SDS011;53949;47.790;18.750;2022-11-15T16:01:58;31.48;;;18.30;;
67041;SDS011;53949;47.790;18.750;2022-11-15T16:05:02;31.08;;;18.83;;
67041;SDS011;53949;47.790;18.750;2022-11-15T16:08:09;34.38;;;18.87;;
67041;SDS011;53949;47.790;18.750;2022-11-15T16:11:19;32.05;;;19.08;;
67041;SDS011;53949;47.790;18.750;2022-11-15T16:14:22;33.20;;;19.10;;
67041;SDS011;53949;47.790;18.750;2022-11-15T16:17:28;34.13;;;19.17;;
67041;SDS011;53949;47.790;18.750;2022-11-15T16:20:39;34.13;;;19.00;;
67041;SDS011;53949;47.790;18.750;2022-11-15T16:23:45;35.88;;;20.73;;
67041;SDS011;53949;47.790;18.750;2022-11-15T16:26:48;40.05;;;19.95;;
67041;SDS011;53949;47.790;18.750;2022-11-15T16:29:51;42.10;;;22.42;;
67041;SDS011;53949;47.790;18.750;2022-11-15T16:32:54;45.33;;;22.70;;
67041;SDS011;53949;47.790;18.750;2022-11-15T16:35:58;40.95;;;22.98;;
67041;SDS011;53949;47.790;18.750;2022-11-15T16:39:01;42.25;;;22.50;;
67041;SDS011;53949;47.790;18.750;2022-11-15T16:42:09;38.90;;;22.50;;
67041;SDS011;53949;47.790;18.750;2022-11-15T16:45:13;45.90;;;24.83;;
67041;SDS011;53949;47.790;18.750;2022-11-15T16:51:23;61.65;;;30.77;;
67041;SDS011;53949;47.790;18.750;2022-11-15T16:54:27;53.53;;;29.08;;
67041;SDS011;53949;47.790;18.750;2022-11-15T16:57:30;59.17;;;31.42;;
67041;SDS011;53949;47.790;18.750;2022-11-15T17:00:33;57.15;;;29.33;;
67041;SDS011;53949;47.790;18.750;2022-11-15T17:03:37;52.60;;;28.95;;
67041;SDS011;53949;47.790;18.750;2022-11-15T17:06:40;61.53;;;30.85;;
67041;SDS011;53949;47.790;18.750;2022-11-15T17:09:44;55.20;;;29.87;;
67041;SDS011;53949;47.790;18.750;2022-11-15T17:12:48;54.85;;;29.17;;
67041;SDS011;53949;47.790;18.750;2022-11-15T17:16:01;61.42;;;30.58;;
67041;SDS011;53949;47.790;18.750;2022-11-15T17:19:05;51.80;;;26.80;;
67041;SDS011;53949;47.790;18.750;2022-11-15T17:22:08;55.22;;;27.33;;
67041;SDS011;53949;47.790;18.750;2022-11-15T17:25:12;51.70;;;26.27;;
67041;SDS011;53949;47.790;18.750;2022-11-15T17:28:15;59.13;;;28.77;;
67041;SDS011;53949;47.790;18.750;2022-11-15T17:31:18;50.03;;;26.05;;
67041;SDS011;53949;47.790;18.750;2022-11-15T17:34:21;52.45;;;25.52;;
67041;SDS011;53949;47.790;18.750;2022-11-15T17:37:24;54.45;;;27.25;;
67041;SDS011;53949;47.790;18.750;2022-11-15T17:40:28;54.03;;;26.33;;
67041;SDS011;53949;47.790;18.750;2022-11-15T17:43:32;53.15;;;25.17;;
67041;SDS011;53949;47.790;18.750;2022-11-15T17:46:36;53.57;;;26.67;;
67041;SDS011;53949;47.790;18.750;2022-11-15T17:49:40;55.17;;;27.17;;
67041;SDS011;53949;47.790;18.750;2022-11-15T17:52:43;56.47;;;28.98;;
67041;SDS011;53949;47.790;18.750;2022-11-15T17:55:46;57.38;;;28.25;;
67041;SDS011;53949;47.790;18.750;2022-11-15T17:58:50;66.78;;;30.98;;
67041;SDS011;53949;47.790;18.750;2022-11-15T18:01:58;66.93;;;31.77;;
67041;SDS011;53949;47.790;18.750;2022-11-15T18:05:01;65.32;;;31.77;;
67041;SDS011;53949;47.790;18.750;2022-11-15T18:08:05;59.97;;;27.77;;
67041;SDS011;53949;47.790;18.750;2022-11-15T18:11:15;59.03;;;28.20;;
67041;SDS011;53949;47.790;18.750;2022-11-15T18:14:20;55.25;;;26.80;;
67041;SDS011;53949;47.790;18.750;2022-11-15T18:17:23;55.17;;;28.67;;
67041;SDS011;53949;47.790;18.750;2022-11-15T18:20:26;51.35;;;25.20;;
67041;SDS011;53949;47.790;18.750;2022-11-15T18:23:31;56.65;;;27.75;;
67041;SDS011;53949;47.790;18.750;2022-11-15T18:26:34;57.50;;;27.40;;
67041;SDS011;53949;47.790;18.750;2022-11-15T18:29:38;49.97;;;25.67;;
67041;SDS011;53949;47.790;18.750;2022-11-15T18:32:41;59.42;;;28.20;;
67041;SDS011;53949;47.790;18.750;2022-11-15T18:35:45;76.37;;;33.20;;
67041;SDS011;53949;47.790;18.750;2022-11-15T18:38:52;60.20;;;29.15;;
67041;SDS011;53949;47.790;18.750;2022-11-15T18:41:59;64.72;;;30.83;;
67041;SDS011;53949;47.790;18.750;2022-11-15T18:45:02;52.50;;;27.33;;
67041;SDS011;53949;47.790;18.750;2022-11-15T18:48:06;63.50;;;30.55;;
67041;SDS011;53949;47.790;18.750;2022-11-15T18:51:10;62.30;;;29.90;;
67041;SDS011;53949;47.790;18.750;2022-11-15T18:54:19;62.72;;;31.48;;
67041;SDS011;53949;47.790;18.750;2022-11-15T18:57:22;67.60;;;33.83;;
67041;SDS011;53949;47.790;18.750;2022-11-15T19:00:25;66.00;;;31.75;;
67041;SDS011;53949;47.790;18.750;2022-11-15T19:03:30;60.05;;;29.48;;
67041;SDS011;53949;47.790;18.750;2022-11-15T19:06:36;60.67;;;31.20;;
67041;SDS011;53949;47.790;18.750;2022-11-15T19:09:41;58.10;;;28.00;;
67041;SDS011;53949;47.790;18.750;2022-11-15T19:12:45;50.25;;;26.10;;
67041;SDS011;53949;47.790;18.750;2022-11-15T19:15:55;55.30;;;26.98;;
67041;SDS011;53949;47.790;18.750;2022-11-15T19:19:00;48.25;;;25.67;;
67041;SDS011;53949;47.790;18.750;2022-11-15T19:22:05;51.15;;;25.30;;
67041;SDS011;53949;47.790;18.750;2022-11-15T19:25:09;55.17;;;27.42;;
67041;SDS011;53949;47.790;18.750;2022-11-15T19:28:12;53.92;;;26.65;;
67041;SDS011;53949;47.790;18.750;2022-11-15T19:31:19;58.72;;;27.15;;
67041;SDS011;53949;47.790;18.750;2022-11-15T19:34:25;54.53;;;27.15;;
67041;SDS011;53949;47.790;18.750;2022-11-15T19:37:29;55.23;;;27.63;;
67041;SDS011;53949;47.790;18.750;2022-11-15T19:40:33;51.77;;;27.83;;
67041;SDS011;53949;47.790;18.750;2022-11-15T19:43:37;53.17;;;27.23;;
67041;SDS011;53949;47.790;18.750;2022-11-15T19:46:40;52.08;;;25.00;;
67041;SDS011;53949;47.790;18.750;2022-11-15T19:49:44;56.37;;;27.48;;
67041;SDS011;53949;47.790;18.750;2022-11-15T19:52:48;52.15;;;26.50;;
67041;SDS011;53949;47.790;18.750;2022-11-15T19:55:55;51.33;;;26.73;;
67041;SDS011;53949;47.790;18.750;2022-11-15T19:59:00;70.57;;;31.55;;
67041;SDS011;53949;47.790;18.750;2022-11-15T20:02:04;79.93;;;34.20;;
67041;SDS011;53949;47.790;18.750;2022-11-15T20:05:07;54.63;;;26.95;;
67041;SDS011;53949;47.790;18.750;2022-11-15T20:08:17;59.53;;;28.83;;
67041;SDS011;53949;47.790;18.750;2022-11-15T20:11:20;57.67;;;27.70;;
67041;SDS011;53949;47.790;18.750;2022-11-15T20:14:23;56.37;;;28.23;;
67041;SDS011;53949;47.790;18.750;2022-11-15T20:17:26;64.15;;;29.80;;
67041;SDS011;53949;47.790;18.750;2022-11-15T20:20:29;77.80;;;35.00;;
67041;SDS011;53949;47.790;18.750;2022-11-15T20:23:32;98.68;;;39.47;;
67041;SDS011;53949;47.790;18.750;2022-11-15T20:26:37;71.70;;;30.92;;
67041;SDS011;53949;47.790;18.750;2022-11-15T20:29:41;67.00;;;30.10;;